createdAt,value
2022-07-25T00:00:02.524Z,74.50
2022-07-25T00:02:30.781Z,75.20
2022-07-25T00:04:59.257Z,75.10
2022-07-25T00:07:29.397Z,75.50
2022-07-25T00:09:58.145Z,75.40
2022-07-25T00:12:26.793Z,75.70
2022-07-25T00:14:55.138Z,76.00
2022-07-25T00:17:23.475Z,76.30
2022-07-25T00:19:51.942Z,76.70
2022-07-25T00:22:20.212Z,77.10
2022-07-25T00:24:49.854Z,77.30
2022-07-25T00:27:18.111Z,77.10
2022-07-25T00:29:46.989Z,77.40
2022-07-25T00:32:15.434Z,77.60
2022-07-25T00:34:43.752Z,77.90
2022-07-25T00:37:11.979Z,78.20
2022-07-25T00:39:40.515Z,78.00
2022-07-25T00:42:10.390Z,78.00
2022-07-25T00:44:38.715Z,78.80
2022-07-25T00:47:07.326Z,78.50
2022-07-25T00:49:35.606Z,78.40
2022-07-25T00:52:03.922Z,78.50
2022-07-25T00:54:32.346Z,78.40
2022-07-25T00:57:00.668Z,78.30
2022-07-25T00:59:32.061Z,78.60
2022-07-25T01:02:03.743Z,78.60
2022-07-25T01:04:32.584Z,78.90
2022-07-25T01:07:01.876Z,78.90
2022-07-25T01:09:30.716Z,78.80
2022-07-25T01:11:59.006Z,78.70
2022-07-25T01:14:27.373Z,78.50
2022-07-25T01:16:56.992Z,78.30
2022-07-25T01:19:26.465Z,78.30
2022-07-25T01:21:56.352Z,78.30
2022-07-25T01:24:24.703Z,78.40
2022-07-25T01:26:53.032Z,79.10
2022-07-25T01:29:21.331Z,79.00
2022-07-25T01:31:49.671Z,79.10
2022-07-25T01:34:17.955Z,79.40
2022-07-25T01:36:46.348Z,79.10
2022-07-25T01:39:15.960Z,79.30
2022-07-25T01:41:44.282Z,79.00
2022-07-25T01:44:12.553Z,79.20
2022-07-25T01:46:41.024Z,79.50
2022-07-25T01:49:09.663Z,79.80
2022-07-25T01:51:38.037Z,79.50
2022-07-25T01:54:09.107Z,79.30
2022-07-25T01:56:45.951Z,79.90
2022-07-25T01:59:16.898Z,79.40
2022-07-25T02:01:45.682Z,79.30
2022-07-25T02:04:14.101Z,79.70
2022-07-25T02:06:42.519Z,79.90
2022-07-25T02:09:11.269Z,79.60
2022-07-25T02:11:41.077Z,79.70
2022-07-25T02:14:09.656Z,79.70
2022-07-25T02:16:38.153Z,79.10
2022-07-25T02:19:06.625Z,79.50
2022-07-25T02:21:35.158Z,78.70
2022-07-25T02:24:03.738Z,78.20
2022-07-25T02:26:32.314Z,77.30
2022-07-25T02:29:01.901Z,77.20
2022-07-25T02:31:30.268Z,77.40
2022-07-25T02:33:58.537Z,76.80
2022-07-25T02:36:26.963Z,77.00
2022-07-25T02:38:55.185Z,76.40
2022-07-25T02:41:23.488Z,75.90
2022-07-25T02:43:51.812Z,75.30
2022-07-25T02:46:21.536Z,76.40
2022-07-25T02:48:49.980Z,76.80
2022-07-25T02:51:18.636Z,77.00
2022-07-25T02:53:57.324Z,77.30
2022-07-25T02:56:29.812Z,78.10
2022-07-25T02:58:59.007Z,77.30
2022-07-25T03:01:28.812Z,77.30
2022-07-25T03:03:57.425Z,77.50
2022-07-25T03:06:25.742Z,77.60
2022-07-25T03:08:54.074Z,76.60
2022-07-25T03:11:22.774Z,75.60
2022-07-25T03:13:51.248Z,75.90
2022-07-25T03:16:19.565Z,76.20
2022-07-25T03:18:49.296Z,76.30
2022-07-25T03:21:17.577Z,76.70
2022-07-25T03:23:51.998Z,76.70
2022-07-25T03:26:21.014Z,77.40
2022-07-25T03:28:49.264Z,77.50
2022-07-25T03:31:17.626Z,77.60
2022-07-25T03:33:46.085Z,78.00
2022-07-25T03:36:15.763Z,78.20
2022-07-25T03:38:44.025Z,78.30
2022-07-25T03:41:13.266Z,78.40
2022-07-25T03:43:41.496Z,78.00
2022-07-25T03:46:09.912Z,78.40
2022-07-25T03:48:38.263Z,78.50
2022-07-25T03:51:07.451Z,78.20
2022-07-25T03:53:57.510Z,78.60
2022-07-25T03:56:25.789Z,78.90
2022-07-25T03:58:54.089Z,79.10
2022-07-25T04:01:22.506Z,79.20
2022-07-25T04:03:51.093Z,79.10
2022-07-25T04:06:19.758Z,79.30
2022-07-25T04:08:49.425Z,79.50
2022-07-25T04:11:17.800Z,78.90
2022-07-25T04:13:46.117Z,78.80
2022-07-25T04:16:18.333Z,79.20
2022-07-25T04:18:51.823Z,78.20
2022-07-25T04:21:20.205Z,78.10
2022-07-25T04:23:50.272Z,77.70
2022-07-25T04:26:18.821Z,77.80
2022-07-25T04:28:47.652Z,77.60
2022-07-25T04:31:16.154Z,77.80
2022-07-25T04:33:44.736Z,77.30
2022-07-25T04:36:13.055Z,77.90
2022-07-25T04:38:41.436Z,77.60
2022-07-25T04:41:11.729Z,77.30
2022-07-25T04:43:43.653Z,76.50
2022-07-25T04:46:14.851Z,77.10
2022-07-25T04:48:43.236Z,76.50
2022-07-25T04:51:14.804Z,75.40
2022-07-25T04:53:43.032Z,75.30
2022-07-25T04:56:12.805Z,75.00
2022-07-25T04:58:41.306Z,74.80
2022-07-25T05:01:09.908Z,72.80
2022-07-25T05:03:38.284Z,72.90
2022-07-25T05:06:07.178Z,72.20
2022-07-25T05:08:35.486Z,73.40
2022-07-25T05:11:03.718Z,72.40
2022-07-25T05:13:33.363Z,72.60
2022-07-25T05:16:01.791Z,70.60
2022-07-25T05:18:30.164Z,70.80
2022-07-25T05:20:58.420Z,69.70
2022-07-25T05:23:26.958Z,70.20
2022-07-25T05:25:55.232Z,70.00
2022-07-25T05:28:23.514Z,67.90
2022-07-25T05:30:53.200Z,68.50
2022-07-25T05:33:21.565Z,68.40
2022-07-25T05:35:49.809Z,67.40
2022-07-25T05:38:18.093Z,67.60
2022-07-25T05:40:46.568Z,66.40
2022-07-25T05:43:14.821Z,66.20
2022-07-25T05:45:44.174Z,65.70
2022-07-25T05:48:13.963Z,65.10
2022-07-25T05:50:42.610Z,64.60
2022-07-25T05:53:10.972Z,65.20
2022-07-25T05:55:40.085Z,64.50
2022-07-25T05:58:10.088Z,63.00
2022-07-25T06:00:39.257Z,63.10
2022-07-25T06:03:07.993Z,63.20
2022-07-25T06:05:37.699Z,63.80
2022-07-25T06:08:06.820Z,64.30
2022-07-25T06:10:35.065Z,63.70
2022-07-25T06:13:05.630Z,63.40
2022-07-25T06:15:36.351Z,62.80
2022-07-25T06:18:04.711Z,63.00
2022-07-25T06:20:33.032Z,63.50
2022-07-25T06:23:03.837Z,62.80
2022-07-25T06:25:32.145Z,62.90
2022-07-25T06:28:01.148Z,62.90
2022-07-25T06:30:29.659Z,63.30
2022-07-25T06:32:57.953Z,62.70
2022-07-25T06:35:26.470Z,63.40
2022-07-25T06:37:54.759Z,62.90
2022-07-25T06:40:24.604Z,62.50
2022-07-25T06:42:52.920Z,62.40
2022-07-25T06:45:21.654Z,62.40
2022-07-25T06:47:51.113Z,62.80
2022-07-25T06:50:21.176Z,63.00
2022-07-25T06:52:50.360Z,63.60
2022-07-25T06:55:19.011Z,64.30
2022-07-25T06:57:48.711Z,63.00
2022-07-25T07:00:17.655Z,61.40
2022-07-25T07:02:52.035Z,61.60
2022-07-25T07:05:20.569Z,62.70
2022-07-25T07:07:48.936Z,62.60
2022-07-25T07:10:18.050Z,62.70
2022-07-25T07:12:48.106Z,63.10
2022-07-25T07:15:17.226Z,62.80
2022-07-25T07:17:45.534Z,62.60
2022-07-25T07:20:14.047Z,63.80
2022-07-25T07:22:46.430Z,63.50
2022-07-25T07:25:16.617Z,63.80
2022-07-25T07:27:48.037Z,63.10
2022-07-25T07:30:20.843Z,63.50
2022-07-25T07:32:52.800Z,62.40
2022-07-25T07:35:21.102Z,63.00
2022-07-25T07:37:49.498Z,62.00
2022-07-25T07:40:18.333Z,63.10
2022-07-25T07:42:51.080Z,62.10
2022-07-25T07:45:22.248Z,62.70
2022-07-25T07:47:52.505Z,63.20
2022-07-25T07:50:23.770Z,64.00
2022-07-25T07:52:53.196Z,62.90
2022-07-25T07:55:39.557Z,62.70
2022-07-25T07:58:10.053Z,63.40
2022-07-25T08:00:40.339Z,63.00
2022-07-25T08:03:10.349Z,62.40
2022-07-25T08:05:41.811Z,62.10
2022-07-25T08:08:12.575Z,62.40
2022-07-25T08:10:43.166Z,60.30
2022-07-25T08:13:18.321Z,61.30
2022-07-25T08:15:50.505Z,62.40
2022-07-25T08:18:19.830Z,61.30
2022-07-25T08:20:49.329Z,61.30
2022-07-25T08:23:18.744Z,61.30
2022-07-25T08:25:47.955Z,61.40
2022-07-25T08:28:17.595Z,61.70
2022-07-25T08:30:46.050Z,61.50
2022-07-25T08:33:17.006Z,61.10
2022-07-25T08:35:49.369Z,62.40
2022-07-25T08:38:19.148Z,61.10
2022-07-25T08:40:47.562Z,62.70
2022-07-25T08:43:18.700Z,60.90
2022-07-25T08:45:49.318Z,60.50
2022-07-25T08:48:21.154Z,60.10
2022-07-25T08:50:50.538Z,60.40
2022-07-25T08:53:36.621Z,58.50
2022-07-25T08:56:13.307Z,59.00
2022-07-25T08:58:44.804Z,59.50
2022-07-25T09:01:13.745Z,56.80
2022-07-25T09:03:43.881Z,56.90
2022-07-25T09:06:22.129Z,57.10
2022-07-25T09:08:55.820Z,56.40
2022-07-25T09:11:32.826Z,56.50
2022-07-25T09:14:06.205Z,57.40
2022-07-25T09:16:40.489Z,56.20
2022-07-25T09:19:16.038Z,56.50
2022-07-25T09:21:46.968Z,56.90
2022-07-25T09:24:22.488Z,58.00
2022-07-25T09:26:53.685Z,58.10
2022-07-25T09:29:26.845Z,58.10
2022-07-25T09:31:57.310Z,58.10
2022-07-25T09:34:34.676Z,57.30
2022-07-25T09:37:04.753Z,56.00
2022-07-25T09:39:46.466Z,55.40
2022-07-25T09:42:25.659Z,55.30
2022-07-25T09:45:07.912Z,55.20
2022-07-25T09:47:38.831Z,54.70
2022-07-25T09:50:09.227Z,55.60
2022-07-25T09:52:39.033Z,56.40
2022-07-25T09:55:10.167Z,55.10
2022-07-25T09:57:38.979Z,55.50
2022-07-25T10:00:13.070Z,53.20
2022-07-25T10:02:51.539Z,53.00
2022-07-25T10:05:32.773Z,53.50
2022-07-25T10:08:02.066Z,52.90
2022-07-25T10:10:32.938Z,51.70
2022-07-25T10:13:11.218Z,52.80
2022-07-25T10:15:50.045Z,50.30
2022-07-25T10:18:21.152Z,51.40
2022-07-25T10:20:51.900Z,51.80
2022-07-25T10:23:28.722Z,51.70
2022-07-25T10:26:09.094Z,50.60
2022-07-25T10:28:44.736Z,49.30
2022-07-25T10:31:24.393Z,49.00
2022-07-25T10:33:55.746Z,50.20
2022-07-25T10:36:25.451Z,48.30
2022-07-25T10:38:58.282Z,48.90
2022-07-25T10:41:28.781Z,49.80
2022-07-25T10:44:00.897Z,48.30
2022-07-25T10:46:32.518Z,50.20
2022-07-25T10:49:06.845Z,49.80
2022-07-25T10:51:41.487Z,50.70
2022-07-25T10:54:18.722Z,50.20
2022-07-25T10:56:58.251Z,51.60
2022-07-25T10:59:35.049Z,51.00
2022-07-25T11:02:06.708Z,51.10
2022-07-25T11:04:35.634Z,50.10
2022-07-25T11:07:15.555Z,50.70
2022-07-25T11:09:45.521Z,50.60
2022-07-25T11:12:17.372Z,50.60
2022-07-25T11:14:47.617Z,51.20
2022-07-25T11:17:20.832Z,51.40
2022-07-25T11:19:56.771Z,50.60
2022-07-25T11:22:25.710Z,51.40
2022-07-25T11:24:54.264Z,51.60
2022-07-25T11:27:24.997Z,52.00
2022-07-25T11:29:55.071Z,52.40
2022-07-25T11:32:24.744Z,51.80
2022-07-25T11:34:55.145Z,52.00
2022-07-25T11:37:23.591Z,51.90
2022-07-25T11:39:53.020Z,50.20
2022-07-25T11:42:22.506Z,51.80
2022-07-25T11:44:52.927Z,50.50
2022-07-25T11:47:29.577Z,51.00
2022-07-25T11:50:00.124Z,51.70
2022-07-25T11:52:30.211Z,50.20
2022-07-25T11:55:01.861Z,49.30
2022-07-25T11:57:32.656Z,49.00
2022-07-25T12:00:02.767Z,50.20
2022-07-25T12:02:35.380Z,50.00
2022-07-25T12:05:07.557Z,50.50
2022-07-25T12:07:45.715Z,51.00
2022-07-25T12:10:18.034Z,50.40
2022-07-25T12:12:49.884Z,50.20
2022-07-25T12:15:22.081Z,50.60
2022-07-25T12:17:53.696Z,51.20
2022-07-25T12:20:25.360Z,49.50
2022-07-25T12:22:57.194Z,48.50
2022-07-25T12:25:30.710Z,48.50
2022-07-25T12:28:00.050Z,48.20
2022-07-25T12:30:29.997Z,47.60
2022-07-25T12:33:01.412Z,48.10
2022-07-25T12:35:30.122Z,47.50
2022-07-25T12:37:58.605Z,49.20
2022-07-25T12:40:27.208Z,48.50
2022-07-25T12:42:55.599Z,47.20
2022-07-25T12:45:23.876Z,48.70
2022-07-25T12:47:52.555Z,47.90
2022-07-25T12:50:24.839Z,48.50
2022-07-25T12:52:53.483Z,50.00
2022-07-25T12:55:22.709Z,49.30
2022-07-25T12:57:51.710Z,48.70
2022-07-25T13:00:24.163Z,49.00
2022-07-25T13:02:55.816Z,50.80
2022-07-25T13:05:26.533Z,47.60
2022-07-25T13:07:54.609Z,49.20
2022-07-25T13:10:22.914Z,49.50
2022-07-25T13:12:51.635Z,49.50
2022-07-25T13:15:22.300Z,49.30
2022-07-25T13:17:51.521Z,51.00
2022-07-25T13:20:19.878Z,49.70
2022-07-25T13:22:49.489Z,49.90
2022-07-25T13:25:18.384Z,49.90
2022-07-25T13:27:48.839Z,49.40
2022-07-25T13:30:17.263Z,50.10
2022-07-25T13:32:45.620Z,51.10
2022-07-25T13:35:19.116Z,51.50
2022-07-25T13:37:50.270Z,51.70
2022-07-25T13:40:18.532Z,51.10
2022-07-25T13:42:46.801Z,51.80
2022-07-25T13:45:15.044Z,51.70
2022-07-25T13:47:43.679Z,52.60
2022-07-25T13:50:12.105Z,52.30
2022-07-25T13:52:40.484Z,52.90
2022-07-25T13:55:12.021Z,53.10
2022-07-25T13:57:40.295Z,54.00
2022-07-25T14:00:10.656Z,54.80
2022-07-25T14:02:39.060Z,53.60
2022-07-25T14:05:07.962Z,53.90
2022-07-25T14:07:36.895Z,53.90
2022-07-25T14:10:08.445Z,55.20
2022-07-25T14:12:39.658Z,55.00
2022-07-25T14:15:09.259Z,56.40
2022-07-25T14:17:38.832Z,55.90
2022-07-25T14:20:09.184Z,56.20
2022-07-25T14:22:38.472Z,55.90
2022-07-25T14:25:07.848Z,55.90
2022-07-25T14:27:38.525Z,55.90
2022-07-25T14:30:09.079Z,55.70
2022-07-25T14:32:37.584Z,55.60
2022-07-25T14:35:07.327Z,56.50
2022-07-25T14:37:36.102Z,56.20
2022-07-25T14:40:06.068Z,55.20
2022-07-25T14:42:34.862Z,55.80
2022-07-25T14:45:05.963Z,55.20
2022-07-25T14:47:34.229Z,55.30
2022-07-25T14:50:02.680Z,53.30
2022-07-25T14:52:31.018Z,54.10
2022-07-25T14:54:59.315Z,54.20
2022-07-25T14:57:27.906Z,53.80
2022-07-25T14:59:56.232Z,54.80
2022-07-25T15:02:25.851Z,55.80
2022-07-25T15:04:54.165Z,55.50
2022-07-25T15:07:22.585Z,53.90
2022-07-25T15:09:50.987Z,53.90
2022-07-25T15:12:20.765Z,54.30
2022-07-25T15:14:49.093Z,53.40
2022-07-25T15:17:17.396Z,53.80
2022-07-25T15:19:47.117Z,53.90
2022-07-25T15:22:15.483Z,54.30
2022-07-25T15:25:17.897Z,53.30
2022-07-25T15:27:32.244Z,54.20
2022-07-25T15:30:00.793Z,52.40
2022-07-25T15:32:29.095Z,51.80
2022-07-25T15:34:59.349Z,51.90
2022-07-25T15:37:27.645Z,50.90
2022-07-25T15:39:55.942Z,52.70
2022-07-25T15:42:28.855Z,53.20
2022-07-25T15:45:22.191Z,52.30
2022-07-25T15:47:50.658Z,51.80
2022-07-25T15:50:21.413Z,51.40
2022-07-25T15:52:49.945Z,51.70
2022-07-25T15:55:18.562Z,51.40
2022-07-25T15:57:46.942Z,53.30
2022-07-25T16:00:16.078Z,52.00
2022-07-25T16:02:44.971Z,51.00
2022-07-25T16:05:13.872Z,51.30
2022-07-25T16:07:43.625Z,49.60
2022-07-25T16:10:13.156Z,49.90
2022-07-25T16:12:42.091Z,49.20
2022-07-25T16:15:11.696Z,50.10
2022-07-25T16:17:40.509Z,50.80
2022-07-25T16:20:10.641Z,50.50
2022-07-25T16:22:39.466Z,50.10
2022-07-25T16:25:10.162Z,50.70
2022-07-25T16:27:38.300Z,51.50
2022-07-25T16:30:08.279Z,51.30
2022-07-25T16:32:36.744Z,51.50
2022-07-25T16:35:05.959Z,52.00
2022-07-25T16:37:34.260Z,50.20
2022-07-25T16:40:03.156Z,48.90
2022-07-25T16:42:32.796Z,49.10
2022-07-25T16:45:01.111Z,49.60
2022-07-25T16:47:29.397Z,49.50
2022-07-25T16:49:57.811Z,49.50
2022-07-25T16:52:26.251Z,49.40
2022-07-25T16:54:55.233Z,48.20
2022-07-25T16:57:25.092Z,49.30
2022-07-25T16:59:55.076Z,48.20
2022-07-25T17:02:28.884Z,46.50
2022-07-25T17:04:58.293Z,45.50
2022-07-25T17:07:27.319Z,45.10
2022-07-25T17:09:55.703Z,46.60
2022-07-25T17:12:24.128Z,46.10
2022-07-25T17:14:53.872Z,46.60
2022-07-25T17:17:22.304Z,46.70
2022-07-25T17:19:50.765Z,46.80
2022-07-25T17:22:20.277Z,46.60
2022-07-25T17:24:48.543Z,47.00
2022-07-25T17:27:17.253Z,47.10
2022-07-25T17:29:45.505Z,47.40
2022-07-25T17:32:15.168Z,48.00
2022-07-25T17:34:43.479Z,47.80
2022-07-25T17:37:11.821Z,47.20
2022-07-25T17:39:40.173Z,48.30
2022-07-25T17:42:08.638Z,48.10
2022-07-25T17:44:37.166Z,48.00
2022-07-25T17:47:05.678Z,48.10
2022-07-25T17:49:35.584Z,48.30
2022-07-25T17:52:03.960Z,49.00
2022-07-25T17:54:32.289Z,49.20
2022-07-25T17:57:00.713Z,49.40
2022-07-25T17:59:29.151Z,49.20
2022-07-25T18:01:57.594Z,49.40
2022-07-25T18:04:26.170Z,49.20
2022-07-25T18:06:56.113Z,49.30
2022-07-25T18:09:24.511Z,49.20
2022-07-25T18:11:54.632Z,49.60
2022-07-25T18:14:23.306Z,49.40
2022-07-25T18:16:51.708Z,50.10
2022-07-25T18:19:20.115Z,51.00
2022-07-25T18:21:48.478Z,50.60
2022-07-25T18:24:18.408Z,49.90
2022-07-25T18:26:47.089Z,50.40
2022-07-25T18:29:15.477Z,50.20
2022-07-25T18:31:43.910Z,50.70
2022-07-25T18:34:12.478Z,51.30
2022-07-25T18:36:42.961Z,50.30
2022-07-25T18:39:11.332Z,50.80
2022-07-25T18:41:41.085Z,50.50
2022-07-25T18:44:09.792Z,50.10
2022-07-25T18:46:39.483Z,50.70
2022-07-25T18:49:09.540Z,50.30
2022-07-25T18:51:38.107Z,50.60
2022-07-25T18:54:08.500Z,50.80
2022-07-25T18:56:37.168Z,51.10
2022-07-25T18:59:07.700Z,51.20
2022-07-25T19:01:37.584Z,51.00
2022-07-25T19:04:06.716Z,51.00
2022-07-25T19:06:35.414Z,51.10
2022-07-25T19:09:04.690Z,51.90
2022-07-25T19:11:37.642Z,50.90
2022-07-25T19:14:11.478Z,50.50
2022-07-25T19:16:39.808Z,51.00
2022-07-25T19:19:09.583Z,51.10
2022-07-25T19:21:38.808Z,50.80
2022-07-25T19:24:08.556Z,50.10
2022-07-25T19:26:37.072Z,50.90
2022-07-25T19:29:07.467Z,50.60
2022-07-25T19:31:38.371Z,51.00
2022-07-25T19:34:07.657Z,51.30
2022-07-25T19:36:36.580Z,51.30
2022-07-25T19:39:06.726Z,51.20
2022-07-25T19:41:35.154Z,51.90
2022-07-25T19:44:03.977Z,52.30
2022-07-25T19:46:34.321Z,52.50
2022-07-25T19:49:05.487Z,52.80
2022-07-25T19:51:34.246Z,53.00
2022-07-25T19:54:04.568Z,52.70
2022-07-25T19:56:34.256Z,52.50
2022-07-25T19:59:02.859Z,53.10
2022-07-25T20:01:34.290Z,53.10
2022-07-25T20:04:05.772Z,53.40
2022-07-25T20:06:34.354Z,53.90
2022-07-25T20:09:03.066Z,54.20
2022-07-25T20:11:31.378Z,54.30
2022-07-25T20:13:59.755Z,54.30
2022-07-25T20:16:28.171Z,54.40
2022-07-25T20:18:56.641Z,54.20
2022-07-25T20:21:26.338Z,55.00
2022-07-25T20:23:54.767Z,55.50
2022-07-25T20:26:23.256Z,55.50
2022-07-25T20:28:51.745Z,55.50
2022-07-25T20:31:22.188Z,55.80
2022-07-25T20:33:50.632Z,56.30
2022-07-25T20:36:19.314Z,56.80
2022-07-25T20:38:49.133Z,57.20
2022-07-25T20:41:17.709Z,57.30
2022-07-25T20:43:46.608Z,56.90
2022-07-25T20:46:15.013Z,57.00
2022-07-25T20:48:43.390Z,57.30
2022-07-25T20:51:13.641Z,57.20
2022-07-25T20:53:42.112Z,57.50
2022-07-25T20:56:11.859Z,58.00
2022-07-25T20:58:40.218Z,58.10
2022-07-25T21:01:08.629Z,58.10
2022-07-25T21:03:37.267Z,58.30
2022-07-25T21:06:06.048Z,58.60
2022-07-25T21:08:34.454Z,58.80
2022-07-25T21:11:02.865Z,58.90
2022-07-25T21:13:33.244Z,59.20
2022-07-25T21:16:01.597Z,59.40
2022-07-25T21:18:29.899Z,59.70
2022-07-25T21:20:58.543Z,60.40
2022-07-25T21:23:27.410Z,60.40
2022-07-25T21:25:55.739Z,60.60
2022-07-25T21:28:24.101Z,60.90
2022-07-25T21:30:55.749Z,61.10
2022-07-25T21:33:24.121Z,61.80
2022-07-25T21:35:52.957Z,62.10
2022-07-25T21:38:26.541Z,62.20
2022-07-25T21:40:56.776Z,62.40
2022-07-25T21:43:25.384Z,62.50
2022-07-25T21:45:55.138Z,63.20
2022-07-25T21:48:44.070Z,63.30
2022-07-25T21:51:18.755Z,63.50
2022-07-25T21:53:48.636Z,63.60
2022-07-25T21:56:17.440Z,64.00
2022-07-25T21:58:45.902Z,64.30
2022-07-25T22:01:15.800Z,64.00
2022-07-25T22:03:44.632Z,64.60
2022-07-25T22:06:13.152Z,64.20
2022-07-25T22:08:41.408Z,64.50
2022-07-25T22:11:34.688Z,64.90
2022-07-25T22:13:58.762Z,64.50
2022-07-25T22:16:28.650Z,64.80
2022-07-25T22:18:57.419Z,64.60
2022-07-25T22:21:26.012Z,64.40
2022-07-25T22:23:54.347Z,64.60
2022-07-25T22:26:22.937Z,64.40
2022-07-25T22:28:51.325Z,64.30
2022-07-25T22:31:19.648Z,64.50
2022-07-25T22:33:49.295Z,64.30
2022-07-25T22:36:17.647Z,64.40
2022-07-25T22:38:46.083Z,64.80
2022-07-25T22:41:14.485Z,65.10
2022-07-25T22:43:57.345Z,65.40
2022-07-25T22:46:27.295Z,65.70
2022-07-25T22:48:57.427Z,65.40
2022-07-25T22:51:26.768Z,65.60
2022-07-25T22:53:55.266Z,66.30
2022-07-25T22:56:24.171Z,66.20
2022-07-25T22:58:52.563Z,66.50
2022-07-25T23:01:22.410Z,67.00
2022-07-25T23:03:51.435Z,66.90
2022-07-25T23:06:22.235Z,67.20
2022-07-25T23:08:51.054Z,67.30
2022-07-25T23:11:19.486Z,67.60
2022-07-25T23:13:47.771Z,67.90
2022-07-25T23:16:16.283Z,68.50
2022-07-25T23:18:44.792Z,68.80
2022-07-25T23:21:13.555Z,69.20
2022-07-25T23:23:43.203Z,69.20
2022-07-25T23:26:11.778Z,69.40
2022-07-25T23:28:40.054Z,69.40
2022-07-25T23:31:08.577Z,69.90
2022-07-25T23:33:37.268Z,69.70
2022-07-25T23:36:06.601Z,70.30
2022-07-25T23:38:34.926Z,70.00
2022-07-25T23:41:04.661Z,70.60
2022-07-25T23:43:57.602Z,70.50
2022-07-25T23:46:25.207Z,70.80
2022-07-25T23:48:56.459Z,70.80
2022-07-25T23:51:24.857Z,70.90
2022-07-25T23:53:53.121Z,71.10
2022-07-25T23:56:22.835Z,71.20
2022-07-25T23:58:51.537Z,71.30
